createdAt,value
2023-05-10T00:00:15.556Z,99850.59
2023-05-10T00:01:12.726Z,99850.53
2023-05-10T00:02:09.784Z,99844.88
2023-05-10T00:03:07.019Z,99850.66
2023-05-10T00:04:04.669Z,99849.56
2023-05-10T00:05:02.110Z,99847.63
2023-05-10T00:05:59.876Z,99849.84
2023-05-10T00:06:56.874Z,99845.50
2023-05-10T00:07:53.809Z,99836.97
2023-05-10T00:08:50.927Z,99839.88
2023-05-10T00:09:47.867Z,99840.81
2023-05-10T00:10:44.858Z,99841.91
2023-05-10T00:11:41.833Z,99840.91
2023-05-10T00:12:38.809Z,99846.50
2023-05-10T00:13:35.876Z,99838.84
2023-05-10T00:14:32.871Z,99843.69
2023-05-10T00:15:31.669Z,99849.09
2023-05-10T00:16:28.694Z,99845.19
2023-05-10T00:17:25.907Z,99838.66
2023-05-10T00:18:22.886Z,99833.06
2023-05-10T00:19:19.891Z,99825.91
2023-05-10T00:20:17.276Z,99836.25
2023-05-10T00:21:14.446Z,99834.56
2023-05-10T00:22:11.733Z,99839.44
2023-05-10T00:23:08.819Z,99839.63
2023-05-10T00:24:06.092Z,99829.84
2023-05-10T00:25:03.096Z,99840.28
2023-05-10T00:26:00.136Z,99839.25
2023-05-10T00:26:57.187Z,99835.44
2023-05-10T00:27:56.406Z,99841.84
2023-05-10T00:28:53.429Z,99840.00
2023-05-10T00:29:50.416Z,99839.91
2023-05-10T00:30:47.327Z,99844.38
2023-05-10T00:31:44.335Z,99841.13
2023-05-10T00:32:41.488Z,99833.50
2023-05-10T00:33:38.473Z,99833.50
2023-05-10T00:34:35.449Z,99838.81
2023-05-10T00:35:32.396Z,99834.81
2023-05-10T00:36:29.352Z,99838.72
2023-05-10T00:37:26.373Z,99831.72
2023-05-10T00:38:23.389Z,99831.28
2023-05-10T00:39:20.431Z,99831.44
2023-05-10T00:40:17.681Z,99826.31
2023-05-10T00:41:14.908Z,99831.16
2023-05-10T00:42:11.894Z,99832.09
2023-05-10T00:43:09.094Z,99821.78
2023-05-10T00:44:06.091Z,99822.03
2023-05-10T00:45:03.159Z,99830.78
2023-05-10T00:46:00.190Z,99831.53
2023-05-10T00:46:57.397Z,99827.25
2023-05-10T00:47:56.439Z,99826.59
2023-05-10T00:48:53.951Z,99831.81
2023-05-10T00:49:51.203Z,99829.47
2023-05-10T00:50:48.277Z,99820.06
2023-05-10T00:51:45.881Z,99822.00
2023-05-10T00:52:43.637Z,99818.47
2023-05-10T00:53:40.611Z,99823.69
2023-05-10T00:54:37.770Z,99816.63
2023-05-10T00:55:34.732Z,99822.66
2023-05-10T00:56:31.831Z,99821.84
2023-05-10T00:57:28.767Z,99833.16
2023-05-10T00:58:29.343Z,99821.84
2023-05-10T00:59:26.633Z,99818.75
2023-05-10T01:00:23.702Z,99822.12
2023-05-10T01:01:21.117Z,99817.87
2023-05-10T01:02:18.258Z,99818.63
2023-05-10T01:03:15.668Z,99813.97
2023-05-10T01:04:14.294Z,99820.00
2023-05-10T01:05:11.382Z,99813.50
2023-05-10T01:06:09.088Z,99820.47
2023-05-10T01:07:06.110Z,99818.47
2023-05-10T01:08:03.950Z,99818.53
2023-05-10T01:09:01.096Z,99820.03
2023-05-10T01:09:58.358Z,99816.69
2023-05-10T01:10:55.673Z,99815.44
2023-05-10T01:11:52.691Z,99810.94
2023-05-10T01:12:49.857Z,99814.47
2023-05-10T01:13:51.676Z,99815.56
2023-05-10T01:14:49.362Z,99814.78
2023-05-10T01:15:47.747Z,99814.06
2023-05-10T01:16:45.741Z,99813.97
2023-05-10T01:17:44.422Z,99811.56
2023-05-10T01:18:42.580Z,99816.78
2023-05-10T01:19:39.655Z,99808.25
2023-05-10T01:20:42.061Z,99811.59
2023-05-10T01:21:57.720Z,99813.53
2023-05-10T01:23:00.815Z,99805.97
2023-05-10T01:23:57.840Z,99810.94
2023-05-10T01:25:28.770Z,99813.81
2023-05-10T01:26:51.957Z,99813.69
2023-05-10T01:28:26.434Z,99809.72
2023-05-10T01:30:22.059Z,99814.97
2023-05-10T01:31:48.414Z,99807.81
2023-05-10T01:33:04.235Z,99810.16
2023-05-10T01:34:04.476Z,99813.13
2023-05-10T01:35:05.126Z,99805.56
2023-05-10T01:36:27.392Z,99810.75
2023-05-10T01:37:35.375Z,99814.34
2023-05-10T01:38:47.506Z,99816.75
2023-05-10T01:39:53.452Z,99813.34
2023-05-10T01:41:15.371Z,99815.00
2023-05-10T01:42:17.040Z,99819.41
2023-05-10T01:43:22.049Z,99813.72
2023-05-10T01:44:25.981Z,99815.91
2023-05-10T01:45:32.089Z,99812.38
2023-05-10T01:46:34.882Z,99816.63
2023-05-10T01:47:43.925Z,99813.22
2023-05-10T01:49:04.031Z,99818.03
2023-05-10T01:50:04.930Z,99809.28
2023-05-10T01:51:02.375Z,99813.47
2023-05-10T01:52:05.831Z,99816.50
2023-05-10T01:53:04.100Z,99814.50
2023-05-10T01:54:03.568Z,99806.56
2023-05-10T01:55:04.374Z,99802.50
2023-05-10T01:56:01.235Z,99813.47
2023-05-10T01:57:04.412Z,99801.88
2023-05-10T01:58:07.891Z,99806.75
2023-05-10T01:59:08.149Z,99807.09
2023-05-10T02:00:06.036Z,99806.09
2023-05-10T02:01:04.848Z,99812.31
2023-05-10T02:02:03.359Z,99807.97
2023-05-10T02:03:01.854Z,99807.12
2023-05-10T02:03:59.558Z,99803.28
2023-05-10T02:04:57.105Z,99806.22
2023-05-10T02:05:55.216Z,99809.81
2023-05-10T02:06:52.890Z,99803.75
2023-05-10T02:07:51.053Z,99803.94
2023-05-10T02:08:49.287Z,99805.44
2023-05-10T02:09:49.198Z,99799.88
2023-05-10T02:10:47.110Z,99802.94
2023-05-10T02:11:45.193Z,99804.16
2023-05-10T02:12:46.690Z,99794.38
2023-05-10T02:13:44.732Z,99790.34
2023-05-10T02:14:43.249Z,99796.59
2023-05-10T02:15:41.908Z,99798.62
2023-05-10T02:16:39.598Z,99793.25
2023-05-10T02:17:37.589Z,99797.31
2023-05-10T02:18:35.612Z,99789.88
2023-05-10T02:19:33.830Z,99787.72
2023-05-10T02:20:32.968Z,99790.44
2023-05-10T02:21:31.866Z,99794.87
2023-05-10T02:22:29.629Z,99791.69
2023-05-10T02:23:27.531Z,99788.47
2023-05-10T02:24:25.896Z,99791.03
2023-05-10T02:25:23.578Z,99784.81
2023-05-10T02:26:22.284Z,99788.50
2023-05-10T02:27:21.209Z,99788.16
2023-05-10T02:28:18.810Z,99780.09
2023-05-10T02:29:16.134Z,99776.72
2023-05-10T02:30:13.340Z,99783.59
2023-05-10T02:31:11.802Z,99785.28
2023-05-10T02:32:10.169Z,99780.75
2023-05-10T02:33:07.907Z,99785.88
2023-05-10T02:34:05.652Z,99779.47
2023-05-10T02:35:04.359Z,99782.66
2023-05-10T02:36:02.851Z,99795.28
2023-05-10T02:37:00.040Z,99786.19
2023-05-10T02:37:58.252Z,99788.56
2023-05-10T02:38:55.486Z,99783.50
2023-05-10T02:39:53.671Z,99787.87
2023-05-10T02:40:51.133Z,99789.22
2023-05-10T02:41:49.076Z,99785.50
2023-05-10T02:42:47.210Z,99784.84
2023-05-10T02:43:44.709Z,99785.38
2023-05-10T02:44:43.170Z,99787.53
2023-05-10T02:45:41.324Z,99788.06
2023-05-10T02:46:38.927Z,99793.78
2023-05-10T02:47:36.111Z,99790.59
2023-05-10T02:48:33.199Z,99788.56
2023-05-10T02:49:30.255Z,99785.88
2023-05-10T02:50:31.621Z,99789.06
2023-05-10T02:51:35.850Z,99783.88
2023-05-10T02:52:40.672Z,99781.69
2023-05-10T02:53:40.113Z,99786.38
2023-05-10T02:54:45.334Z,99789.25
2023-05-10T02:55:44.194Z,99788.37
2023-05-10T02:56:58.130Z,99782.84
2023-05-10T02:57:59.714Z,99785.41
2023-05-10T02:58:56.985Z,99780.84
2023-05-10T02:59:53.911Z,99795.47
2023-05-10T03:00:50.891Z,99791.25
2023-05-10T03:01:48.232Z,99787.91
2023-05-10T03:02:45.359Z,99790.06
2023-05-10T03:03:42.340Z,99790.25
2023-05-10T03:04:39.436Z,99789.41
2023-05-10T03:05:36.420Z,99787.72
2023-05-10T03:06:34.175Z,99791.94
2023-05-10T03:07:31.193Z,99791.09
2023-05-10T03:08:30.565Z,99786.22
2023-05-10T03:09:27.545Z,99790.72
2023-05-10T03:10:29.012Z,99789.22
2023-05-10T03:11:51.659Z,99786.19
2023-05-10T03:13:12.592Z,99796.13
2023-05-10T03:14:35.315Z,99783.50
2023-05-10T03:15:57.163Z,99792.06
2023-05-10T03:16:59.205Z,99794.56
2023-05-10T03:18:00.992Z,99790.53
2023-05-10T03:19:52.416Z,99787.00
2023-05-10T03:20:51.631Z,99786.03
2023-05-10T03:21:52.604Z,99786.16
2023-05-10T03:22:54.015Z,99788.00
2023-05-10T03:24:16.832Z,99796.09
2023-05-10T03:25:14.287Z,99791.56
2023-05-10T03:26:12.493Z,99787.78
2023-05-10T03:27:09.555Z,99797.47
2023-05-10T03:28:06.777Z,99798.72
2023-05-10T03:29:04.943Z,99797.22
2023-05-10T03:30:03.116Z,99800.19
2023-05-10T03:31:00.546Z,99791.50
2023-05-10T03:31:59.999Z,99795.03
2023-05-10T03:32:58.233Z,99790.31
2023-05-10T03:33:55.251Z,99792.66
2023-05-10T03:34:52.211Z,99791.69
2023-05-10T03:35:49.483Z,99788.19
2023-05-10T03:36:46.515Z,99782.84
2023-05-10T03:37:43.498Z,99791.41
2023-05-10T03:38:40.564Z,99787.53
2023-05-10T03:39:37.643Z,99801.47
2023-05-10T03:40:34.759Z,99788.53
2023-05-10T03:41:31.902Z,99783.34
2023-05-10T03:42:28.886Z,99790.75
2023-05-10T03:43:25.915Z,99789.56
2023-05-10T03:44:22.919Z,99788.75
2023-05-10T03:45:19.901Z,99793.25
2023-05-10T03:46:16.980Z,99796.16
2023-05-10T03:47:13.972Z,99788.91
2023-05-10T03:48:10.999Z,99790.41
2023-05-10T03:49:07.996Z,99794.28
2023-05-10T03:50:06.174Z,99793.28
2023-05-10T03:51:03.414Z,99782.19
2023-05-10T03:52:00.495Z,99789.56
2023-05-10T03:52:58.514Z,99789.22
2023-05-10T03:53:58.524Z,99791.19
2023-05-10T03:54:55.454Z,99788.03
2023-05-10T03:55:52.431Z,99793.56
2023-05-10T03:56:49.418Z,99790.72
2023-05-10T03:57:46.674Z,99788.69
2023-05-10T03:58:43.614Z,99798.56
2023-05-10T03:59:40.711Z,99792.00
2023-05-10T04:00:38.340Z,99795.69
2023-05-10T04:01:36.079Z,99794.63
2023-05-10T04:02:33.196Z,99796.66
2023-05-10T04:03:30.281Z,99796.13
2023-05-10T04:04:27.294Z,99792.59
2023-05-10T04:05:24.308Z,99797.22
2023-05-10T04:06:21.305Z,99792.00
2023-05-10T04:07:19.253Z,99795.66
2023-05-10T04:08:17.663Z,99789.81
2023-05-10T04:09:14.882Z,99790.41
2023-05-10T04:10:13.015Z,99791.25
2023-05-10T04:11:11.404Z,99794.72
2023-05-10T04:12:10.737Z,99796.53
2023-05-10T04:13:08.052Z,99799.94
2023-05-10T04:14:05.061Z,99796.06
2023-05-10T04:15:02.406Z,99800.41
2023-05-10T04:15:59.362Z,99798.47
2023-05-10T04:16:56.723Z,99796.25
2023-05-10T04:17:54.885Z,99799.88
2023-05-10T04:18:52.115Z,99797.22
2023-05-10T04:19:49.099Z,99803.00
2023-05-10T04:20:46.034Z,99799.16
2023-05-10T04:21:43.012Z,99804.34
2023-05-10T04:22:40.237Z,99803.19
2023-05-10T04:23:37.493Z,99794.78
2023-05-10T04:24:34.434Z,99802.44
2023-05-10T04:25:31.421Z,99801.47
2023-05-10T04:26:28.418Z,99794.72
2023-05-10T04:27:25.412Z,99805.19
2023-05-10T04:28:23.171Z,99803.25
2023-05-10T04:29:20.159Z,99799.94
2023-05-10T04:30:17.580Z,99811.00
2023-05-10T04:31:14.803Z,99811.13
2023-05-10T04:32:11.770Z,99805.53
2023-05-10T04:33:08.909Z,99809.53
2023-05-10T04:34:06.721Z,99815.47
2023-05-10T04:35:04.849Z,99808.69
2023-05-10T04:36:02.043Z,99806.47
2023-05-10T04:36:59.018Z,99810.37
2023-05-10T04:37:56.114Z,99806.00
2023-05-10T04:38:53.253Z,99818.00
2023-05-10T04:39:50.268Z,99817.87
2023-05-10T04:40:47.516Z,99813.00
2023-05-10T04:41:44.436Z,99813.94
2023-05-10T04:42:42.650Z,99810.31
2023-05-10T04:43:39.736Z,99821.91
2023-05-10T04:44:37.352Z,99816.91
2023-05-10T04:45:34.370Z,99817.34
2023-05-10T04:46:31.385Z,99815.41
2023-05-10T04:47:28.378Z,99821.38
2023-05-10T04:48:25.353Z,99809.00
2023-05-10T04:49:22.959Z,99817.53
2023-05-10T04:50:20.256Z,99814.38
2023-05-10T04:51:17.311Z,99818.75
2023-05-10T04:52:14.910Z,99825.28
2023-05-10T04:53:12.502Z,99816.09
2023-05-10T04:54:10.281Z,99824.22
2023-05-10T04:55:09.291Z,99820.25
2023-05-10T04:56:06.711Z,99820.69
2023-05-10T04:57:03.732Z,99823.75
2023-05-10T04:58:00.709Z,99819.63
2023-05-10T04:58:57.737Z,99824.00
2023-05-10T04:59:54.844Z,99825.44
2023-05-10T05:00:51.810Z,99821.75
2023-05-10T05:01:48.777Z,99825.37
2023-05-10T05:02:49.597Z,99823.13
2023-05-10T05:03:46.696Z,99826.78
2023-05-10T05:04:43.761Z,99824.56
2023-05-10T05:05:40.810Z,99822.06
2023-05-10T05:06:37.893Z,99819.69
2023-05-10T05:07:35.026Z,99826.25
2023-05-10T05:08:32.496Z,99820.06
2023-05-10T05:09:29.472Z,99818.19
2023-05-10T05:10:26.465Z,99831.28
2023-05-10T05:11:23.621Z,99829.03
2023-05-10T05:12:20.696Z,99823.97
2023-05-10T05:13:17.752Z,99827.81
2023-05-10T05:14:14.795Z,99822.12
2023-05-10T05:15:12.272Z,99830.72
2023-05-10T05:16:09.558Z,99827.97
2023-05-10T05:17:06.492Z,99823.16
2023-05-10T05:18:03.640Z,99832.16
2023-05-10T05:19:01.180Z,99830.06
2023-05-10T05:19:58.197Z,99828.59
2023-05-10T05:20:55.203Z,99823.81
2023-05-10T05:21:52.216Z,99823.16
2023-05-10T05:22:49.215Z,99824.66
2023-05-10T05:23:46.406Z,99829.22
2023-05-10T05:24:43.372Z,99826.50
2023-05-10T05:25:40.426Z,99828.34
2023-05-10T05:26:38.032Z,99823.56
2023-05-10T05:27:34.981Z,99825.44
2023-05-10T05:28:34.158Z,99829.09
2023-05-10T05:29:31.158Z,99816.34
2023-05-10T05:30:28.191Z,99829.47
2023-05-10T05:31:25.377Z,99827.78
2023-05-10T05:32:22.938Z,99831.16
2023-05-10T05:33:19.875Z,99826.94
2023-05-10T05:34:17.115Z,99836.06
2023-05-10T05:35:14.577Z,99832.47
2023-05-10T05:36:11.712Z,99836.28
2023-05-10T05:37:08.700Z,99839.41
2023-05-10T05:38:05.770Z,99843.97
2023-05-10T05:39:02.772Z,99843.41
2023-05-10T05:39:59.808Z,99840.87
2023-05-10T05:40:56.749Z,99836.78
2023-05-10T05:41:53.693Z,99848.00
2023-05-10T05:42:51.011Z,99849.25
2023-05-10T05:43:47.954Z,99854.91
2023-05-10T05:44:44.930Z,99844.00
2023-05-10T05:45:41.953Z,99850.38
2023-05-10T05:46:39.281Z,99850.31
2023-05-10T05:47:36.280Z,99848.06
2023-05-10T05:48:33.273Z,99852.62
2023-05-10T05:49:30.206Z,99858.22
2023-05-10T05:50:27.231Z,99856.94
2023-05-10T05:51:24.232Z,99850.31
2023-05-10T05:52:22.429Z,99860.34
2023-05-10T05:53:19.392Z,99856.56
2023-05-10T05:54:16.350Z,99863.44
2023-05-10T05:55:13.348Z,99857.00
2023-05-10T05:56:10.933Z,99859.28
2023-05-10T05:57:11.611Z,99865.53
2023-05-10T05:58:11.353Z,99864.47
2023-05-10T05:59:08.669Z,99861.91
2023-05-10T06:00:06.339Z,99857.13
2023-05-10T06:01:03.356Z,99859.62
2023-05-10T06:02:00.461Z,99856.13
2023-05-10T06:02:57.669Z,99858.22
2023-05-10T06:03:55.017Z,99860.34
2023-05-10T06:04:52.032Z,99859.91
2023-05-10T06:05:49.080Z,99868.31
2023-05-10T06:06:46.114Z,99862.84
2023-05-10T06:07:46.315Z,99860.28
2023-05-10T06:08:43.274Z,99864.28
2023-05-10T06:09:40.237Z,99862.16
2023-05-10T06:10:37.732Z,99857.00
2023-05-10T06:11:35.214Z,99858.25
2023-05-10T06:12:32.219Z,99856.19
2023-05-10T06:13:33.939Z,99861.81
2023-05-10T06:14:31.014Z,99857.41
2023-05-10T06:15:28.540Z,99857.81
2023-05-10T06:16:25.535Z,99862.81
2023-05-10T06:17:22.954Z,99859.47
2023-05-10T06:18:19.855Z,99860.34
2023-05-10T06:19:16.810Z,99862.44
2023-05-10T06:20:14.239Z,99861.63
2023-05-10T06:21:11.251Z,99855.56
2023-05-10T06:22:10.936Z,99864.94
2023-05-10T06:23:07.933Z,99862.84
2023-05-10T06:24:05.231Z,99861.38
2023-05-10T06:25:02.343Z,99857.00
2023-05-10T06:25:59.403Z,99856.63
2023-05-10T06:26:56.394Z,99851.41
2023-05-10T06:27:58.520Z,99853.69
2023-05-10T06:28:55.590Z,99849.09
2023-05-10T06:29:59.272Z,99853.63
2023-05-10T06:31:03.081Z,99859.94
2023-05-10T06:32:00.191Z,99852.31
2023-05-10T06:32:57.281Z,99843.47
2023-05-10T06:33:56.640Z,99841.59
2023-05-10T06:34:53.881Z,99838.94
2023-05-10T06:35:50.873Z,99846.22
2023-05-10T06:36:47.834Z,99852.44
2023-05-10T06:37:44.811Z,99855.75
2023-05-10T06:38:41.976Z,99844.97
2023-05-10T06:39:39.097Z,99854.81
2023-05-10T06:40:37.190Z,99847.28
2023-05-10T06:41:34.185Z,99844.19
2023-05-10T06:42:31.239Z,99849.47
2023-05-10T06:43:29.859Z,99851.94
2023-05-10T06:44:26.972Z,99849.44
2023-05-10T06:45:24.084Z,99843.41
2023-05-10T06:46:21.142Z,99854.97
2023-05-10T06:47:18.612Z,99855.87
2023-05-10T06:48:15.661Z,99853.16
2023-05-10T06:49:12.610Z,99852.31
2023-05-10T06:50:10.877Z,99853.16
2023-05-10T06:51:07.848Z,99855.59
2023-05-10T06:52:05.368Z,99859.78
2023-05-10T06:53:05.949Z,99860.34
2023-05-10T06:54:03.183Z,99854.84
2023-05-10T06:55:00.275Z,99852.53
2023-05-10T06:55:57.393Z,99856.50
2023-05-10T06:56:54.602Z,99852.25
2023-05-10T06:57:51.962Z,99854.75
2023-05-10T06:58:49.738Z,99852.50
2023-05-10T06:59:46.795Z,99842.03
2023-05-10T07:00:45.003Z,99853.94
2023-05-10T07:01:42.155Z,99853.47
2023-05-10T07:02:39.335Z,99838.63
2023-05-10T07:03:36.533Z,99848.41
2023-05-10T07:04:33.987Z,99851.28
2023-05-10T07:05:31.001Z,99850.78
2023-05-10T07:06:33.368Z,99842.06
2023-05-10T07:07:31.113Z,99845.69
2023-05-10T07:08:28.033Z,99845.97
2023-05-10T07:09:25.653Z,99850.34
2023-05-10T07:10:22.654Z,99850.28
2023-05-10T07:11:19.613Z,99843.31
2023-05-10T07:12:16.630Z,99847.41
2023-05-10T07:13:13.825Z,99846.66
2023-05-10T07:14:10.860Z,99843.91
2023-05-10T07:15:08.740Z,99844.47
2023-05-10T07:16:07.617Z,99839.22
2023-05-10T07:17:04.739Z,99838.69
2023-05-10T07:18:01.930Z,99840.59
2023-05-10T07:18:59.008Z,99841.63
2023-05-10T07:19:56.053Z,99846.47
2023-05-10T07:20:53.461Z,99839.63
2023-05-10T07:21:51.446Z,99826.28
2023-05-10T07:22:48.355Z,99838.34
2023-05-10T07:23:45.390Z,99840.69
2023-05-10T07:24:42.355Z,99841.94
2023-05-10T07:25:39.336Z,99837.25
2023-05-10T07:26:36.308Z,99839.16
2023-05-10T07:27:33.761Z,99829.84
2023-05-10T07:28:30.721Z,99839.63
2023-05-10T07:29:27.840Z,99833.63
2023-05-10T07:30:25.485Z,99830.06
2023-05-10T07:31:22.461Z,99843.63
2023-05-10T07:32:19.413Z,99842.72
2023-05-10T07:33:17.110Z,99839.06
2023-05-10T07:34:14.157Z,99841.03
2023-05-10T07:35:11.307Z,99841.50
2023-05-10T07:36:08.662Z,99837.06
2023-05-10T07:37:09.926Z,99841.78
2023-05-10T07:38:08.134Z,99847.34
2023-05-10T07:39:05.349Z,99840.16
2023-05-10T07:40:02.392Z,99847.03
2023-05-10T07:40:59.341Z,99851.78
2023-05-10T07:41:57.052Z,99845.22
2023-05-10T07:42:54.018Z,99843.06
2023-05-10T07:43:51.009Z,99840.25
2023-05-10T07:44:48.450Z,99838.84
2023-05-10T07:45:45.469Z,99842.28
2023-05-10T07:46:42.482Z,99846.72
2023-05-10T07:47:40.491Z,99852.19
2023-05-10T07:48:38.592Z,99843.19
2023-05-10T07:49:35.654Z,99850.66
2023-05-10T07:50:32.837Z,99851.50
2023-05-10T07:51:29.967Z,99850.69
2023-05-10T07:52:27.169Z,99849.78
2023-05-10T07:53:24.251Z,99850.06
2023-05-10T07:54:21.252Z,99856.75
2023-05-10T07:55:19.969Z,99858.38
2023-05-10T07:56:32.911Z,99854.78
2023-05-10T07:57:29.872Z,99849.84
2023-05-10T07:58:27.077Z,99860.38
2023-05-10T07:59:24.026Z,99849.59
2023-05-10T08:00:21.482Z,99851.84
2023-05-10T08:01:18.493Z,99851.44
2023-05-10T08:02:15.592Z,99851.06
2023-05-10T08:03:13.177Z,99851.88
2023-05-10T08:04:10.458Z,99860.38
2023-05-10T08:05:07.729Z,99858.56
2023-05-10T08:06:04.849Z,99849.16
2023-05-10T08:07:01.798Z,99859.22
2023-05-10T08:07:58.835Z,99856.81
2023-05-10T08:08:55.951Z,99848.75
2023-05-10T08:09:52.970Z,99851.72
2023-05-10T08:10:49.905Z,99853.69
2023-05-10T08:11:46.869Z,99854.59
2023-05-10T08:12:43.891Z,99848.81
2023-05-10T08:13:41.098Z,99851.25
2023-05-10T08:14:39.393Z,99854.69
2023-05-10T08:15:38.337Z,99852.94
2023-05-10T08:17:09.647Z,99850.53
2023-05-10T08:18:08.332Z,99853.91
2023-05-10T08:19:05.863Z,99851.69
2023-05-10T08:20:03.592Z,99850.00
2023-05-10T08:21:00.666Z,99853.19
2023-05-10T08:21:58.228Z,99855.41
2023-05-10T08:22:55.238Z,99855.31
2023-05-10T08:23:52.286Z,99858.38
2023-05-10T08:24:49.211Z,99863.22
2023-05-10T08:25:46.230Z,99860.41
2023-05-10T08:26:43.207Z,99851.03
2023-05-10T08:27:40.273Z,99853.25
2023-05-10T08:28:37.524Z,99866.59
2023-05-10T08:29:46.129Z,99854.91
2023-05-10T08:30:46.352Z,99850.59
2023-05-10T08:31:43.408Z,99867.12
2023-05-10T08:32:40.612Z,99860.66
2023-05-10T08:33:37.658Z,99854.28
2023-05-10T08:34:43.587Z,99858.97
2023-05-10T08:35:40.669Z,99860.66
2023-05-10T08:36:37.721Z,99858.22
2023-05-10T08:37:34.842Z,99855.41
2023-05-10T08:38:31.961Z,99854.69
2023-05-10T08:39:30.669Z,99863.28
2023-05-10T08:40:28.267Z,99859.62
2023-05-10T08:41:27.381Z,99852.88
2023-05-10T08:42:27.445Z,99849.22
2023-05-10T08:43:28.739Z,99857.06
2023-05-10T08:44:26.104Z,99853.66
2023-05-10T08:45:24.524Z,99866.75
2023-05-10T08:46:23.198Z,99853.97
2023-05-10T08:47:20.428Z,99848.00
2023-05-10T08:48:18.093Z,99851.47
2023-05-10T08:49:22.287Z,99849.28
2023-05-10T08:50:42.595Z,99865.72
2023-05-10T08:51:43.806Z,99861.78
2023-05-10T08:52:41.852Z,99859.47
2023-05-10T08:53:38.997Z,99860.78
2023-05-10T08:54:36.369Z,99850.69
2023-05-10T08:55:34.758Z,99857.66
2023-05-10T08:56:31.837Z,99851.56
2023-05-10T08:57:29.011Z,99855.97
2023-05-10T08:58:26.569Z,99854.13
2023-05-10T08:59:24.156Z,99862.53
2023-05-10T09:00:21.766Z,99854.00
2023-05-10T09:01:19.808Z,99855.91
2023-05-10T09:02:18.855Z,99852.38
2023-05-10T09:03:16.190Z,99854.38
2023-05-10T09:04:13.999Z,99859.50
2023-05-10T09:05:11.871Z,99855.38
2023-05-10T09:06:09.318Z,99850.47
2023-05-10T09:07:08.310Z,99851.56
2023-05-10T09:08:05.874Z,99857.34
2023-05-10T09:09:05.376Z,99853.44
2023-05-10T09:10:03.553Z,99853.44
2023-05-10T09:11:02.760Z,99857.25
2023-05-10T09:11:59.791Z,99858.19
2023-05-10T09:13:00.534Z,99851.28
2023-05-10T09:13:57.578Z,99846.06
2023-05-10T09:14:55.675Z,99851.19
2023-05-10T09:15:53.209Z,99853.19
2023-05-10T09:16:50.335Z,99850.09
2023-05-10T09:17:48.029Z,99844.41
2023-05-10T09:18:45.008Z,99849.66
2023-05-10T09:19:41.980Z,99847.63
2023-05-10T09:20:39.093Z,99846.78
2023-05-10T09:21:40.511Z,99849.66
2023-05-10T09:22:41.534Z,99843.34
2023-05-10T09:23:38.702Z,99859.28
2023-05-10T09:24:46.790Z,99847.25
2023-05-10T09:25:43.835Z,99852.16
2023-05-10T09:26:50.205Z,99845.22
2023-05-10T09:27:48.675Z,99864.59
2023-05-10T09:28:59.600Z,99847.22
2023-05-10T09:29:57.010Z,99845.94
2023-05-10T09:30:56.813Z,99843.25
2023-05-10T09:31:55.994Z,99845.97
2023-05-10T09:32:53.136Z,99836.41
2023-05-10T09:33:51.007Z,99843.28
2023-05-10T09:34:51.131Z,99853.91
2023-05-10T09:35:48.618Z,99850.13
2023-05-10T09:36:56.994Z,99847.41
2023-05-10T09:37:56.364Z,99846.69
2023-05-10T09:38:53.929Z,99849.41
2023-05-10T09:39:55.912Z,99837.88
2023-05-10T09:40:55.730Z,99857.72
2023-05-10T09:41:52.749Z,99840.13
2023-05-10T09:43:01.070Z,99846.31
2023-05-10T09:43:58.054Z,99842.50
2023-05-10T09:44:55.050Z,99842.38
2023-05-10T09:45:52.292Z,99837.88
2023-05-10T09:46:53.959Z,99838.22
2023-05-10T09:47:51.156Z,99839.06
2023-05-10T09:48:49.536Z,99844.41
2023-05-10T09:49:52.312Z,99848.31
2023-05-10T09:50:58.533Z,99840.94
2023-05-10T09:52:03.899Z,99838.34
2023-05-10T09:53:04.290Z,99832.03
2023-05-10T09:54:16.139Z,99837.28
2023-05-10T09:55:13.476Z,99834.53
2023-05-10T09:56:10.851Z,99835.72
2023-05-10T09:57:20.349Z,99839.41
2023-05-10T09:58:17.370Z,99832.75
2023-05-10T09:59:14.375Z,99841.44
2023-05-10T10:00:12.170Z,99839.66
2023-05-10T10:01:13.594Z,99845.12
2023-05-10T10:02:10.671Z,99837.41
2023-05-10T10:03:08.336Z,99837.50
2023-05-10T10:04:06.594Z,99846.44
2023-05-10T10:05:05.174Z,99836.19
2023-05-10T10:06:02.287Z,99835.84
2023-05-10T10:07:05.616Z,99830.47
2023-05-10T10:08:06.584Z,99824.44
2023-05-10T10:09:03.632Z,99832.75
2023-05-10T10:10:00.994Z,99826.22
2023-05-10T10:10:58.022Z,99831.44
2023-05-10T10:11:55.615Z,99830.03
2023-05-10T10:12:53.193Z,99832.72
2023-05-10T10:13:50.563Z,99826.94
2023-05-10T10:14:49.216Z,99835.22
2023-05-10T10:15:47.237Z,99833.34
2023-05-10T10:16:59.545Z,99838.31
2023-05-10T10:18:01.908Z,99829.16
2023-05-10T10:18:59.590Z,99832.03
2023-05-10T10:19:57.192Z,99834.03
2023-05-10T10:20:55.670Z,99836.31
2023-05-10T10:21:52.944Z,99835.16
2023-05-10T10:22:50.258Z,99833.37
2023-05-10T10:23:47.755Z,99830.19
2023-05-10T10:24:44.818Z,99831.69
2023-05-10T10:25:41.774Z,99834.41
2023-05-10T10:26:43.956Z,99821.75
2023-05-10T10:27:42.114Z,99820.56
2023-05-10T10:28:53.573Z,99832.47
2023-05-10T10:30:18.072Z,99815.94
2023-05-10T10:31:25.374Z,99817.75
2023-05-10T10:32:48.715Z,99807.88
2023-05-10T10:33:51.370Z,99814.75
2023-05-10T10:34:48.671Z,99831.91
2023-05-10T10:35:47.761Z,99826.94
2023-05-10T10:36:47.130Z,99824.81
2023-05-10T10:37:48.866Z,99823.25
2023-05-10T10:38:48.358Z,99815.78
2023-05-10T10:39:45.531Z,99822.59
2023-05-10T10:40:42.616Z,99826.06
2023-05-10T10:41:52.534Z,99805.72
2023-05-10T10:42:51.241Z,99810.63
2023-05-10T10:43:48.361Z,99816.06
2023-05-10T10:44:45.989Z,99821.03
2023-05-10T10:45:42.973Z,99820.22
2023-05-10T10:47:12.918Z,99805.09
2023-05-10T10:48:28.351Z,99813.38
2023-05-10T10:49:25.421Z,99811.28
2023-05-10T10:50:22.394Z,99815.38
2023-05-10T10:51:22.551Z,99815.03
2023-05-10T10:52:34.390Z,99811.31
2023-05-10T10:53:31.782Z,99805.06
2023-05-10T10:54:29.812Z,99801.81
2023-05-10T10:55:27.799Z,99802.97
2023-05-10T10:56:25.538Z,99800.88
2023-05-10T10:57:27.531Z,99806.09
2023-05-10T10:58:34.655Z,99802.13
2023-05-10T10:59:31.542Z,99799.53
2023-05-10T11:00:38.592Z,99807.06
2023-05-10T11:01:38.847Z,99796.66
2023-05-10T11:02:47.218Z,99796.50
2023-05-10T11:04:02.395Z,99789.03
2023-05-10T11:04:59.460Z,99786.28
2023-05-10T11:05:59.910Z,99792.81
2023-05-10T11:07:20.278Z,99779.56
2023-05-10T11:08:27.704Z,99774.66
2023-05-10T11:09:26.094Z,99781.03
2023-05-10T11:10:23.976Z,99781.25
2023-05-10T11:11:21.809Z,99773.84
2023-05-10T11:12:18.754Z,99788.13
2023-05-10T11:13:15.738Z,99774.59
2023-05-10T11:14:12.706Z,99776.75
2023-05-10T11:15:10.852Z,99772.94
2023-05-10T11:16:15.105Z,99782.38
2023-05-10T11:17:28.676Z,99773.37
2023-05-10T11:18:31.172Z,99784.88
2023-05-10T11:19:31.388Z,99774.31
2023-05-10T11:20:40.278Z,99780.53
2023-05-10T11:21:53.070Z,99779.25
2023-05-10T11:22:54.092Z,99775.50
2023-05-10T11:23:58.682Z,99776.31
2023-05-10T11:25:02.188Z,99789.09
2023-05-10T11:26:01.359Z,99778.72
2023-05-10T11:26:58.478Z,99776.91
2023-05-10T11:27:55.771Z,99772.53
2023-05-10T11:28:54.649Z,99785.81
2023-05-10T11:29:54.578Z,99771.00
2023-05-10T11:30:51.622Z,99769.66
2023-05-10T11:31:49.750Z,99775.38
2023-05-10T11:32:46.768Z,99772.03
2023-05-10T11:33:58.552Z,99777.31
2023-05-10T11:34:55.539Z,99768.59
2023-05-10T11:35:52.529Z,99768.81
2023-05-10T11:36:53.084Z,99766.88